地図

経路データ

SID SEASON NUMBER BASIN SUBBASIN NAME ISO_TIME NATURE LAT LON WMO_WIND WMO_PRES WMO_AGENCY TRACK_TYPE DIST2LAND LANDFALL IFLAG USA_AGENCY USA_ATCF_ID USA_LAT USA_LON USA_RECORD USA_STATUS USA_WIND USA_PRES USA_SSHS USA_R34_NE USA_R34_SE USA_R34_SW USA_R34_NW USA_R50_NE USA_R50_SE USA_R50_SW USA_R50_NW USA_R64_NE USA_R64_SE USA_R64_SW USA_R64_NW USA_POCI USA_ROCI USA_RMW USA_EYE TOKYO_LAT TOKYO_LON TOKYO_GRADE TOKYO_WIND TOKYO_PRES TOKYO_R50_DIR TOKYO_R50_LONG TOKYO_R50_SHORT TOKYO_R30_DIR TOKYO_R30_LONG TOKYO_R30_SHORT TOKYO_LAND CMA_LAT CMA_LON CMA_CAT CMA_WIND CMA_PRES HKO_LAT HKO_LON HKO_CAT HKO_WIND HKO_PRES NEWDELHI_LAT NEWDELHI_LON NEWDELHI_GRADE NEWDELHI_WIND NEWDELHI_PRES NEWDELHI_CI NEWDELHI_DP NEWDELHI_POCI REUNION_LAT REUNION_LON REUNION_TYPE REUNION_WIND REUNION_PRES REUNION_TNUM REUNION_CI REUNION_RMW REUNION_R34_NE REUNION_R34_SE REUNION_R34_SW REUNION_R34_NW REUNION_R50_NE REUNION_R50_SE REUNION_R50_SW REUNION_R50_NW REUNION_R64_NE REUNION_R64_SE REUNION_R64_SW REUNION_R64_NW BOM_LAT BOM_LON BOM_TYPE BOM_WIND BOM_PRES BOM_TNUM BOM_CI BOM_RMW BOM_R34_NE BOM_R34_SE BOM_R34_SW BOM_R34_NW BOM_R50_NE BOM_R50_SE BOM_R50_SW BOM_R50_NW BOM_R64_NE BOM_R64_SE BOM_R64_SW BOM_R64_NW BOM_ROCI BOM_POCI BOM_EYE BOM_POS_METHOD BOM_PRES_METHOD NADI_LAT NADI_LON NADI_CAT NADI_WIND NADI_PRES WELLINGTON_LAT WELLINGTON_LON WELLINGTON_WIND WELLINGTON_PRES DS824_LAT DS824_LON DS824_STAGE DS824_WIND DS824_PRES TD9636_LAT TD9636_LON TD9636_STAGE TD9636_WIND TD9636_PRES TD9635_LAT TD9635_LON TD9635_WIND TD9635_PRES TD9635_ROCI NEUMANN_LAT NEUMANN_LON NEUMANN_CLASS NEUMANN_WIND NEUMANN_PRES MLC_LAT MLC_LON MLC_CLASS MLC_WIND MLC_PRES USA_GUST BOM_GUST BOM_GUST_PER REUNION_GUST REUNION_GUST_PER USA_SEAHGT USA_SEARAD_NE USA_SEARAD_SE USA_SEARAD_SW USA_SEARAD_NW STORM_SPEED STORM_DIR
1860267N12318 1860 32 NA NA NOT_NAMED 1860-09-23 00:00:00 TS 12.0000 -41.6000 main 1372 1362 _____________O -1 12.0000 -41.6000 TS 35 4 314
1860267N12318 1860 32 NA NA NOT_NAMED 1860-09-23 03:00:00 TS 12.1500 -41.7625 main 1369 1361 _____________P -1 12.1500 -41.7625 TS 37 4 316
1860267N12318 1860 32 NA NA NOT_NAMED 1860-09-23 06:00:00 TS 12.3000 -41.9000 main 1368 1367 _____________O -1 12.3000 -41.9000 TS 40 4 323
1860267N12318 1860 32 NA NA NOT_NAMED 1860-09-23 09:00:00 TS 12.4500 -42.0000 main 1367 1366 _____________P -1 12.4500 -42.0000 TS 42 4 327
1860267N12318 1860 32 NA NA NOT_NAMED 1860-09-23 12:00:00 TS 12.6000 -42.1000 main 1374 1373 _____________O -1 12.6000 -42.1000 TS 45 4 321
1860267N12318 1860 32 NA NA NOT_NAMED 1860-09-23 15:00:00 TS 12.7500 -42.2500 main 1381 1373 _____________P -1 12.7500 -42.2500 TS 47 4 316
1860267N12318 1860 32 NA NA NOT_NAMED 1860-09-23 18:00:00 TS 12.9000 -42.4000 main 1373 1373 _____________O -1 12.9000 -42.4000 TS 50 4 320
1860267N12318 1860 32 NA NA NOT_NAMED 1860-09-23 21:00:00 TS 13.0425 -42.5000 main 1373 1373 _____________P -1 13.0425 -42.5000 TS 52 4 327
1860267N12318 1860 32 NA NA NOT_NAMED 1860-09-24 00:00:00 TS 13.2000 -42.6000 main 1381 1381 _____________O -1 13.2000 -42.6000 TS 55 4 326
1860267N12318 1860 32 NA NA NOT_NAMED 1860-09-24 03:00:00 TS 13.4000 -42.7500 main 1389 1382 _____________P -1 13.4000 -42.7500 TS 57 5 324
1860267N12318 1860 32 NA NA NOT_NAMED 1860-09-24 06:00:00 TS 13.6000 -42.9000 main 1391 1391 _____________O -1 13.6000 -42.9000 TS 60 4 325
1860267N12318 1860 32 NA NA NOT_NAMED 1860-09-24 09:00:00 TS 13.7500 -43.0075 main 1392 1392 _____________P -1 13.7500 -43.0075 TS 62 4 327
1860267N12318 1860 32 NA NA NOT_NAMED 1860-09-24 12:00:00 TS 13.9000 -43.1000 main 1402 1402 _____________O -1 13.9000 -43.1000 HU 65 4 330
1860267N12318 1860 32 NA NA NOT_NAMED 1860-09-24 15:00:00 TS 14.0925 -43.2075 main 1412 1412 _____________P -1 14.0925 -43.2075 HU 65 4 334
1860267N12318 1860 32 NA NA NOT_NAMED 1860-09-24 18:00:00 TS 14.3000 -43.3000 main 1422 1422 _____________O -1 14.3000 -43.3000 HU 65 4 340
1860267N12318 1860 32 NA NA NOT_NAMED 1860-09-24 21:00:00 TS 14.5075 -43.3575 main 1433 1433 _____________P -1 14.5075 -43.3575 HU 65 4 347
1860267N12318 1860 32 NA NA NOT_NAMED 1860-09-25 00:00:00 TS 14.7000 -43.4000 main 1451 1451 _____________O -1 14.7000 -43.4000 HU 65 4 346
1860267N12318 1860 32 NA NA NOT_NAMED 1860-09-25 03:00:00 TS 14.8575 -43.4500 main 1462 1462 _____________P -1 14.8575 -43.4500 HU 65 3 343
1860267N12318 1860 32 NA NA NOT_NAMED 1860-09-25 06:00:00 TS 15.0000 -43.5000 main 1471 1471 _____________O -1 15.0000 -43.5000 HU 65 3 341
1860267N12318 1860 32 NA NA NOT_NAMED 1860-09-25 09:00:00 TS 15.1500 -43.5500 main 1489 1483 _____________P -1 15.1500 -43.5500 HU 65 3 343
1860267N12318 1860 32 NA NA NOT_NAMED 1860-09-25 12:00:00 TS 15.3000 -43.6000 main 1492 1492 _____________O -1 15.3000 -43.6000 HU 65 3 343
1860267N12318 1860 32 NA NA NOT_NAMED 1860-09-25 15:00:00 TS 15.4575 -43.6500 main 1511 1505 _____________P -1 15.4575 -43.6500 HU 65 3 343
1860267N12318 1860 32 NA NA NOT_NAMED 1860-09-25 18:00:00 TS 15.6000 -43.7000 main 1514 1514 _____________O -1 15.6000 -43.7000 HU 65 3 340
1860267N12318 1860 32 NA NA NOT_NAMED 1860-09-25 21:00:00 TS 15.6925 -43.7425 main 1523 1517 _____________P -1 15.6925 -43.7425 HU 65 2 333
1860267N12318 1860 32 NA NA NOT_NAMED 1860-09-26 00:00:00 TS 15.8000 -43.8000 main 1527 1527 _____________O -1 15.8000 -43.8000 HU 65 3 332
1860267N12318 1860 32 NA NA NOT_NAMED 1860-09-26 03:00:00 TS 15.9850 -43.9000 main 1538 1538 _____________P -1 15.9850 -43.9000 HU 65 4 334
1860267N12318 1860 32 NA NA NOT_NAMED 1860-09-26 06:00:00 TS 16.2000 -44.0000 main 1548 1548 _____________O -1 16.2000 -44.0000 HU 65 4 340
1860267N12318 1860 32 NA NA NOT_NAMED 1860-09-26 09:00:00 TS 16.4000 -44.0575 main 1559 1559 _____________P -1 16.4000 -44.0575 HU 65 4 347
1860267N12318 1860 32 NA NA NOT_NAMED 1860-09-26 12:00:00 TS 16.6000 -44.1000 main 1577 1577 _____________O -1 16.6000 -44.1000 HU 65 4 348
1860267N12318 1860 32 NA NA NOT_NAMED 1860-09-26 15:00:00 TS 16.8075 -44.1500 main 1589 1589 _____________P -1 16.8075 -44.1500 HU 65 4 347
1860267N12318 1860 32 NA NA NOT_NAMED 1860-09-26 18:00:00 TS 17.0000 -44.2000 main 1607 1607 _____________O -1 17.0000 -44.2000 HU 65 4 346
1860267N12318 1860 32 NA NA NOT_NAMED 1860-09-26 21:00:00 TS 17.1650 -44.2425 main 1625 1619 _____________P -1 17.1650 -44.2425 HU 65 3 343
1860267N12318 1860 32 NA NA NOT_NAMED 1860-09-27 00:00:00 TS 17.3000 -44.3000 main 1628 1628 _____________O -1 17.3000 -44.3000 HU 65 3 329
1860267N12318 1860 32 NA NA NOT_NAMED 1860-09-27 03:00:00 TS 17.4150 -44.4000 main 1632 1632 _____________P -1 17.4150 -44.4000 HU 65 3 316
1860267N12318 1860 32 NA NA NOT_NAMED 1860-09-27 06:00:00 TS 17.5000 -44.5000 main 1635 1635 _____________O -1 17.5000 -44.5000 HU 65 2 315
1860267N12318 1860 32 NA NA NOT_NAMED 1860-09-27 09:00:00 TS 17.5575 -44.5500 main 1639 1639 _____________P -1 17.5575 -44.5500 HU 65 1 317
1860267N12318 1860 32 NA NA NOT_NAMED 1860-09-27 12:00:00 TS 17.6000 -44.6000 main 1639 1633 _____________O -1 17.6000 -44.6000 HU 65 2 303
1860267N12318 1860 32 NA NA NOT_NAMED 1860-09-27 15:00:00 TS 17.6500 -44.7000 main 1642 1637 _____________P -1 17.6500 -44.7000 HU 62 2 298
1860267N12318 1860 32 NA NA NOT_NAMED 1860-09-27 18:00:00 TS 17.7000 -44.8000 main 1637 1637 _____________O -1 17.7000 -44.8000 TS 60 2 306
1860267N12318 1860 32 NA NA NOT_NAMED 1860-09-27 21:00:00 TS 17.7575 -44.8575 main 1640 1640 _____________P -1 17.7575 -44.8575 TS 57 1 317
1860267N12318 1860 32 NA NA NOT_NAMED 1860-09-28 00:00:00 TS 17.8000 -44.9000 main 1640 1640 _____________O -1 17.8000 -44.9000 TS 55 1 301
1860267N12318 1860 32 NA NA NOT_NAMED 1860-09-28 03:00:00 TS 17.8075 -44.9425 main 1640 1635 _____________P -1 17.8075 -44.9425 TS 52 1 270
1860267N12318 1860 32 NA NA NOT_NAMED 1860-09-28 06:00:00 TS 17.8000 -45.0000 main 1635 1629 _____________O -1 17.8000 -45.0000 TS 50 1 267
1860267N12318 1860 32 NA NA NOT_NAMED 1860-09-28 09:00:00 TS 17.8000 -45.0925 main 1629 1624 _____________P -1 17.8000 -45.0925 TS 47 2 270
1860267N12318 1860 32 NA NA NOT_NAMED 1860-09-28 12:00:00 TS 17.8000 -45.2000 main 1624 1619 _____________O -1 17.8000 -45.2000 TS 45 2 270
1860267N12318 1860 32 NA NA NOT_NAMED 1860-09-28 15:00:00 TS 17.8000 -45.3000 main 1619 1613 _____________P -1 17.8000 -45.3000 TS 42 2 270
1860267N12318 1860 32 NA NA NOT_NAMED 1860-09-28 18:00:00 TS 17.8000 -45.4000 main 1613 1608 _____________O -1 17.8000 -45.4000 TS 40 2 270
1860267N12318 1860 32 NA NA NOT_NAMED 1860-09-28 21:00:00 TS 17.8000 -45.5075 main 1608 1603 _____________P -1 17.8000 -45.5075 TS 35 2 270
1860267N12318 1860 32 NA NA NOT_NAMED 1860-09-29 00:00:00 TS 17.8000 -45.6000 main 1603 1603 _____________O -1 17.8000 -45.6000 TD 30 1 270
1860267N12318 1860 32 NA NA NOT_NAMED 1860-09-29 03:00:00 TS 17.8000 -45.6500 main 1603 1598 _____________P -1 17.8000 -45.6500 TD 30 1 270
1860267N12318 1860 32 NA NA NOT_NAMED 1860-09-29 06:00:00 TS 17.8000 -45.7000 main 1598 1593 _____________O -1 17.8000 -45.7000 TD 30 1 270
1860267N12318 1860 32 NA NA NOT_NAMED 1860-09-29 09:00:00 TS 17.8000 -45.7875 main 1593 1588 _____________P -1 17.8000 -45.7875 TD 30 2 270
1860267N12318 1860 32 NA NA NOT_NAMED 1860-09-29 12:00:00 TS 17.8000 -45.9000 main 1588 _____________O -1 17.8000 -45.9000 TD 30 2 270

IBTrACS Databaseについて

本データベースは、米国NOAAが公開する1842年以降の世界の熱帯低気圧のベストトラックデータアーカイブInternational Best Track Archive for Climate Stewardship (IBTrACS)を、ウェブで閲覧しやすい形式に変換したものです。

最終更新日:2021-10-19